Time;durP1;ratioP1;P1;durP2;ratioP2;P2;SDS_P1;SDS_P2;PMS_P1;PMS_P2;Temp;Humidity;BMP_temperature;BMP_pressure;BME280_temperature;BME280_humidity;BME280_pressure;Samples;Min_cycle;Max_cycle;Signal;HPM_P1;HPM_P2
2023/11/30 00:00:28;;;;;;;6.30;3.40;;;;;;;-4.83;70.32;98121.64;105633;1256;61198;-29
2023/11/30 00:02:56;;;;;;;7.10;3.40;;;;;;;-4.96;70.39;98126.99;105735;1254;73697;-29
2023/11/30 00:05:23;;;;;;;8.50;4.20;;;;;;;-5.20;71.07;98128.09;105700;1254;74298;-30
2023/11/30 00:07:51;;;;;;;7.50;3.80;;;;;;;-5.43;71.60;98130.52;105908;1253;72636;-30
2023/11/30 00:10:18;;;;;;;7.20;3.70;;;;;;;-5.66;72.53;98128.66;105644;1259;61144;-29
2023/11/30 00:12:45;;;;;;;7.70;4.00;;;;;;;-5.83;72.68;98133.56;105691;1254;61278;-29
2023/11/30 00:15:12;;;;;;;7.00;3.80;;;;;;;-5.97;73.12;98134.15;105694;1254;71859;-29
2023/11/30 00:17:39;;;;;;;6.30;4.00;;;;;;;-6.14;73.35;98135.50;105710;1254;74298;-29
2023/11/30 00:20:07;;;;;;;4.30;2.70;;;;;;;-6.30;73.75;98144.56;105813;1254;72487;-29
2023/11/30 00:22:34;;;;;;;5.30;3.40;;;;;;;-6.47;73.92;98146.88;105484;1253;61182;-29
2023/11/30 00:25:01;;;;;;;8.20;3.20;;;;;;;-6.63;74.48;98147.95;105856;1256;61154;-29
2023/11/30 00:27:28;;;;;;;7.20;2.70;;;;;;;-6.79;75.20;98143.63;105783;1254;73808;-29
2023/11/30 00:29:55;;;;;;;5.20;2.10;;;;;;;-6.41;74.96;98144.84;105420;1254;74067;-29
2023/11/30 00:32:23;;;;;;;5.60;3.10;;;;;;;-5.45;72.74;98150.34;105555;1254;72699;-29
2023/11/30 00:34:51;;;;;;;6.60;4.00;;;;;;;-5.04;71.47;98150.09;105700;1254;61054;-28
2023/11/30 00:37:18;;;;;;;7.60;2.80;;;;;;;-5.12;70.93;98147.48;105934;1252;61186;-29
2023/11/30 00:39:45;;;;;;;5.60;2.70;;;;;;;-5.37;70.96;98150.09;105759;1254;73841;-29
2023/11/30 00:42:12;;;;;;;4.70;2.10;;;;;;;-5.66;71.26;98152.50;105854;1254;74314;-29
2023/11/30 00:44:39;;;;;;;6.10;2.80;;;;;;;-5.98;72.08;98151.26;105723;1259;71175;-29
2023/11/30 00:47:06;;;;;;;6.50;3.60;;;;;;;-6.18;72.37;98146.75;105871;1254;61033;-29
2023/11/30 00:49:33;;;;;;;6.30;3.30;;;;;;;-6.38;72.85;98144.59;105902;1256;61622;-29
2023/11/30 00:52:00;;;;;;;4.50;3.00;;;;;;;-6.61;74.00;98150.11;105681;1254;74264;-29
2023/11/30 00:54:27;;;;;;;5.80;3.30;;;;;;;-6.79;75.45;98151.39;105560;1254;74437;-29
2023/11/30 00:56:54;;;;;;;5.30;2.40;;;;;;;-6.95;76.23;98151.79;105576;1258;71972;-29
2023/11/30 00:59:22;;;;;;;9.00;2.50;;;;;;;-6.93;76.84;98155.61;105914;1256;61749;-29
2023/11/30 01:01:49;;;;;;;3.90;1.60;;;;;;;-6.26;75.87;98154.21;105906;1256;61093;-29
2023/11/30 01:04:16;;;;;;;4.00;2.40;;;;;;;-5.84;73.71;98154.06;105881;1254;73699;-29
2023/11/30 01:06:43;;;;;;;5.90;3.50;;;;;;;-5.89;73.39;98155.04;105731;1254;74385;-29
2023/11/30 01:09:10;;;;;;;6.40;3.50;;;;;;;-6.12;73.79;98154.69;105924;1256;72648;-29
2023/11/30 01:11:42;;;;;;;5.00;2.30;;;;;;;-6.34;74.43;98159.18;105699;1254;61050;-30
2023/11/30 01:14:09;;;;;;;2.30;1.80;;;;;;;-6.62;75.46;98151.81;105715;1256;61152;-29
2023/11/30 01:16:36;;;;;;;4.70;2.60;;;;;;;-6.93;76.63;98152.77;105823;1254;74294;-29
2023/11/30 01:19:03;;;;;;;3.70;2.50;;;;;;;-7.10;77.54;98153.02;105688;1254;74752;-29
2023/11/30 01:21:31;;;;;;;4.60;2.00;;;;;;;-7.23;77.81;98152.97;105896;1254;72677;-29
2023/11/30 01:23:59;;;;;;;6.10;2.50;;;;;;;-7.40;78.80;98151.17;105964;1254;61150;-29
2023/11/30 01:26:26;;;;;;;3.20;1.60;;;;;;;-7.30;78.82;98149.75;105773;1257;61706;-29
2023/11/30 01:28:53;;;;;;;5.10;3.20;;;;;;;-6.42;76.82;98154.14;105965;1256;73729;-29
2023/11/30 01:31:19;;;;;;;4.90;2.60;;;;;;;-5.98;74.48;98154.45;105909;1256;74266;-29
2023/11/30 01:33:47;;;;;;;5.70;2.70;;;;;;;-6.03;74.82;98155.65;105651;1254;71474;-29
2023/11/30 01:36:14;;;;;;;9.50;4.30;;;;;;;-6.25;74.99;98154.90;105379;1252;61068;-29
2023/11/30 01:38:41;;;;;;;6.70;2.90;;;;;;;-6.56;75.19;98158.90;105532;1256;61134;-29
2023/11/30 01:41:09;;;;;;;5.20;2.20;;;;;;;-6.84;76.38;98160.96;105653;1257;72277;-28
2023/11/30 01:43:36;;;;;;;3.30;2.10;;;;;;;-7.10;77.36;98161.61;105641;1254;74347;-29
2023/11/30 01:46:04;;;;;;;3.90;2.80;;;;;;;-7.30;78.04;98162.23;105844;1254;72497;-29
2023/11/30 01:48:32;;;;;;;4.10;3.20;;;;;;;-7.49;79.77;98163.35;105340;1254;61170;-29
2023/11/30 01:51:00;;;;;;;5.40;3.00;;;;;;;-7.33;80.45;98164.65;105643;1256;61139;-28
2023/11/30 01:53:27;;;;;;;9.50;4.20;;;;;;;-6.72;78.35;98170.98;105572;1254;73720;-29
2023/11/30 01:55:54;;;;;;;3.30;2.40;;;;;;;-6.56;77.66;98175.13;105523;1254;74694;-29
2023/11/30 01:58:21;;;;;;;10.30;4.00;;;;;;;-6.66;77.01;98177.73;105378;1254;71387;-31
2023/11/30 02:00:48;;;;;;;4.50;3.10;;;;;;;-6.88;78.45;98174.92;105518;1254;61075;-29
2023/11/30 02:03:16;;;;;;;4.20;3.80;;;;;;;-7.00;77.90;98178.23;105606;1259;61144;-28
2023/11/30 02:05:45;;;;;;;4.40;2.70;;;;;;;-7.27;79.25;98172.63;105663;1254;72814;-29
2023/11/30 02:08:11;;;;;;;7.80;3.30;;;;;;;-7.47;79.60;98175.45;105579;1253;71924;-29
2023/11/30 02:10:38;;;;;;;3.50;2.50;;;;;;;-7.66;80.77;98182.77;105745;1255;72620;-29
2023/11/30 02:13:05;;;;;;;8.20;5.90;;;;;;;-7.19;80.11;98183.58;105822;1252;61150;-29
2023/11/30 02:15:32;;;;;;;5.30;2.90;;;;;;;-6.89;78.63;98186.59;105530;1254;61195;-29
2023/11/30 02:17:59;;;;;;;7.10;2.80;;;;;;;-6.75;77.62;98183.20;105674;1254;73749;-29
2023/11/30 02:20:27;;;;;;;9.30;3.90;;;;;;;-6.86;77.24;98179.09;105671;1260;74066;-28
2023/11/30 02:22:54;;;;;;;14.20;4.70;;;;;;;-7.08;76.97;98186.71;104857;1254;1003001;-29
2023/11/30 02:25:21;;;;;;;8.80;3.10;;;;;;;-7.31;77.35;98185.71;105485;1254;61144;-29
2023/11/30 02:27:48;;;;;;;7.50;2.80;;;;;;;-7.63;78.99;98189.44;105758;1256;61103;-28
2023/11/30 02:30:15;;;;;;;5.20;2.80;;;;;;;-7.88;80.13;98189.62;105856;1254;74235;-29
2023/11/30 02:32:43;;;;;;;6.80;4.30;;;;;;;-7.73;80.75;98192.19;105741;1257;74354;-29
2023/11/30 02:35:10;;;;;;;4.90;3.70;;;;;;;-7.13;79.16;98196.09;105640;1254;72442;-29
2023/11/30 02:37:37;;;;;;;8.00;3.80;;;;;;;-6.92;77.56;98191.21;105597;1254;61046;-29
2023/11/30 02:40:05;;;;;;;14.70;4.20;;;;;;;-7.03;77.61;98193.15;105891;1252;61186;-29
2023/11/30 02:42:32;;;;;;;7.80;4.80;;;;;;;-7.22;77.54;98194.27;105708;1257;72645;-29
2023/11/30 02:44:59;;;;;;;10.90;6.10;;;;;;;-7.49;77.88;98194.20;105908;1256;73159;-28
2023/11/30 02:47:26;;;;;;;10.70;4.70;;;;;;;-7.78;79.40;98193.13;105674;1253;72469;-29
2023/11/30 02:49:53;;;;;;;7.60;3.90;;;;;;;-7.91;79.52;98197.77;105687;1254;61073;-28
2023/11/30 02:52:21;;;;;;;4.60;3.00;;;;;;;-8.21;81.38;98196.33;105683;1260;61078;-29
2023/11/30 02:54:49;;;;;;;12.30;4.70;;;;;;;-7.80;80.33;98201.60;105750;1257;73541;-29
2023/11/30 02:57:16;;;;;;;5.70;3.50;;;;;;;-6.96;77.87;98200.42;105714;1254;74243;-29
2023/11/30 02:59:43;;;;;;;12.00;5.70;;;;;;;-6.83;75.99;98198.59;105811;1254;72476;-29
2023/11/30 03:02:11;;;;;;;9.70;4.30;;;;;;;-6.96;75.81;98202.80;105745;1253;61114;-30
2023/11/30 03:04:38;;;;;;;5.40;3.60;;;;;;;-7.22;75.98;98201.35;105802;1254;61049;-29
2023/11/30 03:07:05;;;;;;;4.10;3.40;;;;;;;-7.48;77.01;98210.56;105663;1259;74226;-29
2023/11/30 03:09:33;;;;;;;4.00;3.00;;;;;;;-7.75;77.87;98209.08;105777;1254;74317;-29
2023/11/30 03:12:01;;;;;;;10.90;7.00;;;;;;;-7.94;78.33;98210.81;105737;1254;72371;-29
2023/11/30 03:14:28;;;;;;;10.30;4.30;;;;;;;-8.17;79.36;98209.73;105760;1256;61121;-29
2023/11/30 03:16:56;;;;;;;6.50;4.30;;;;;;;-8.01;79.50;98213.13;105843;1257;62606;-29
2023/11/30 03:19:24;;;;;;;4.90;3.10;;;;;;;-7.50;77.89;98208.39;105606;1254;73658;-29
2023/11/30 03:21:51;;;;;;;8.60;5.10;;;;;;;-7.36;76.84;98203.52;105664;1259;74362;-29
2023/11/30 03:24:19;;;;;;;6.70;4.40;;;;;;;-7.48;76.83;98202.95;105414;1254;72615;-29
2023/11/30 03:26:46;;;;;;;5.90;2.80;;;;;;;-7.64;76.70;98199.77;105614;1260;61252;-29
2023/11/30 03:29:13;;;;;;;8.20;3.80;;;;;;;-8.01;77.99;98199.99;105747;1256;61141;-29
2023/11/30 03:31:41;;;;;;;9.00;3.70;;;;;;;-8.12;78.73;98203.08;105566;1254;73645;-29
2023/11/30 03:34:08;;;;;;;7.50;2.90;;;;;;;-8.32;78.88;98211.88;105681;1254;74895;-29
2023/11/30 03:36:35;;;;;;;3.50;2.40;;;;;;;-8.04;79.49;98219.92;105481;1254;71123;-30
2023/11/30 03:39:04;;;;;;;5.90;4.30;;;;;;;-7.28;76.60;98223.08;105645;1254;61013;-27
2023/11/30 03:41:31;;;;;;;3.90;2.70;;;;;;;-6.93;75.28;98223.13;105605;1254;61069;-27
2023/11/30 03:43:58;;;;;;;7.50;3.90;;;;;;;-6.99;74.50;98223.61;105884;1254;74236;-27
2023/11/30 03:46:25;;;;;;;3.90;3.10;;;;;;;-7.26;74.23;98227.94;105717;1254;74198;-27
2023/11/30 03:48:53;;;;;;;6.10;3.50;;;;;;;-7.67;75.41;98232.00;105720;1259;72676;-27
2023/11/30 03:51:20;;;;;;;16.60;6.60;;;;;;;-7.93;76.15;98233.54;105668;1259;61093;-27
2023/11/30 03:53:47;;;;;;;4.70;3.00;;;;;;;-8.12;77.22;98235.75;105566;1254;61164;-27
2023/11/30 03:56:14;;;;;;;2.30;1.70;;;;;;;-8.28;77.39;98236.55;105821;1256;73720;-27
2023/11/30 03:58:41;;;;;;;5.60;3.50;;;;;;;-7.77;76.73;98236.08;105881;1252;73184;-27
2023/11/30 04:01:08;;;;;;;6.80;3.50;;;;;;;-6.91;74.92;98236.75;105902;1254;72493;-27
2023/11/30 04:03:35;;;;;;;6.20;3.20;;;;;;;-6.67;73.02;98238.90;105884;1253;61166;-27
2023/11/30 04:06:03;;;;;;;6.10;3.60;;;;;;;-6.81;72.85;98237.38;105847;1256;61118;-27
2023/11/30 04:08:30;;;;;;;9.50;5.20;;;;;;;-7.07;72.90;98240.66;105863;1254;73504;-27
2023/11/30 04:10:59;;;;;;;9.80;4.50;;;;;;;-7.44;73.52;98239.29;105938;1256;74187;-27
2023/11/30 04:13:26;;;;;;;8.40;4.30;;;;;;;-7.68;74.18;98240.30;105919;1254;73169;-27
2023/11/30 04:15:53;;;;;;;5.30;3.30;;;;;;;-7.91;74.84;98243.94;105589;1256;61186;-30
2023/11/30 04:18:21;;;;;;;12.80;5.00;;;;;;;-8.20;76.05;98244.83;105658;1259;61144;-30
2023/11/30 04:20:49;;;;;;;5.80;3.00;;;;;;;-8.03;76.50;98248.39;105512;1254;73868;-27
2023/11/30 04:23:17;;;;;;;5.50;2.40;;;;;;;-7.33;74.35;98245.96;105788;1254;74135;-27
2023/11/30 04:25:45;;;;;;;9.30;4.40;;;;;;;-7.20;72.43;98248.39;105538;1256;72613;-27
2023/11/30 04:28:12;;;;;;;9.00;5.70;;;;;;;-7.38;72.67;98251.80;105608;1253;61055;-29
2023/11/30 04:30:39;;;;;;;3.10;2.10;;;;;;;-7.63;73.21;98251.67;105823;1252;61014;-27
2023/11/30 04:33:07;;;;;;;8.70;3.70;;;;;;;-7.85;73.67;98248.73;103105;1254;3551816;-27
2023/11/30 04:35:34;;;;;;;5.40;3.00;;;;;;;-8.16;74.58;98252.00;105698;1259;61087;-27
2023/11/30 04:38:01;;;;;;;9.90;4.60;;;;;;;-8.46;75.54;98262.14;105625;1258;61173;-27
2023/11/30 04:40:29;;;;;;;9.20;5.00;;;;;;;-8.63;76.83;98260.08;105822;1256;61110;-27
2023/11/30 04:42:56;;;;;;;8.30;4.80;;;;;;;-8.18;76.14;98264.16;105682;1256;61173;-29
2023/11/30 04:45:23;;;;;;;8.90;4.40;;;;;;;-7.47;73.77;98265.48;105531;1254;74113;-27
2023/11/30 04:47:50;;;;;;;6.10;3.30;;;;;;;-7.36;71.88;98269.32;105653;1254;74165;-27
2023/11/30 04:50:18;;;;;;;4.50;2.80;;;;;;;-7.67;72.91;98266.75;105685;1254;72594;-30
2023/11/30 04:52:45;;;;;;;10.30;3.60;;;;;;;-7.87;73.10;98266.11;105521;1254;61132;-27
2023/11/30 04:55:12;;;;;;;6.90;4.30;;;;;;;-8.18;73.95;98262.64;105731;1257;61176;-27
2023/11/30 04:57:39;;;;;;;5.30;2.40;;;;;;;-8.43;74.94;98260.05;105804;1254;73697;-27
2023/11/30 05:00:07;;;;;;;5.60;3.10;;;;;;;-8.60;75.37;98262.38;105881;1254;74127;-27
2023/11/30 05:02:35;;;;;;;2.60;1.80;;;;;;;-8.46;75.41;98261.63;105641;1254;72516;-27
2023/11/30 05:05:05;;;;;;;3.70;2.40;;;;;;;-7.66;73.54;98258.63;105578;1261;61176;-27
2023/11/30 05:07:32;;;;;;;10.00;3.90;;;;;;;-7.48;72.00;98256.58;105695;1258;61113;-27
2023/11/30 05:10:00;;;;;;;10.40;5.00;;;;;;;-7.64;72.21;98256.90;105785;1254;73778;-27
2023/11/30 05:12:27;;;;;;;4.60;3.00;;;;;;;-7.93;72.94;98256.30;105515;1254;74147;-30
2023/11/30 05:14:54;;;;;;;7.80;4.40;;;;;;;-8.22;73.64;98254.63;105682;1254;72515;-27
2023/11/30 05:17:21;;;;;;;5.50;3.60;;;;;;;-8.47;74.90;98260.64;105570;1254;61149;-29
2023/11/30 05:19:47;;;;;;;5.00;1.90;;;;;;;-8.72;75.77;98261.73;105749;1254;61176;-30
2023/11/30 05:22:14;;;;;;;9.40;6.10;;;;;;;-8.84;76.57;98262.08;105846;1259;73915;-28
2023/11/30 05:26:40;;;;;;;9.10;5.70;;;;;;;-7.90;74.04;98263.13;103098;1288;600172;-30
2023/11/30 05:29:07;;;;;;;9.10;4.90;;;;;;;-7.58;71.94;98268.27;105583;1258;61182;-29
2023/11/30 05:31:35;;;;;;;5.00;3.30;;;;;;;-7.71;71.88;98263.77;105594;1256;61060;-29
2023/11/30 05:34:03;;;;;;;7.50;2.80;;;;;;;-8.15;72.72;98266.95;105637;1255;70801;-29
2023/11/30 05:36:31;;;;;;;11.20;3.20;;;;;;;-8.44;74.36;98275.90;105602;1261;74864;-29
2023/11/30 05:38:59;;;;;;;6.70;3.60;;;;;;;-8.68;74.85;98277.33;105648;1259;71241;-28
2023/11/30 05:41:28;;;;;;;4.30;2.50;;;;;;;-8.88;76.23;98270.73;103137;1257;3463013;-29
2023/11/30 05:43:55;;;;;;;3.60;2.00;;;;;;;-8.62;75.82;98278.07;105649;1255;61075;-29
2023/11/30 05:46:23;;;;;;;7.90;3.90;;;;;;;-7.90;73.49;98283.20;105629;1258;72371;-29
2023/11/30 05:48:51;;;;;;;6.00;3.20;;;;;;;-7.62;71.42;98284.52;105847;1258;73083;-29
2023/11/30 05:51:19;;;;;;;4.90;3.50;;;;;;;-7.91;72.05;98282.38;105670;1255;70702;-29
2023/11/30 05:53:47;;;;;;;2.80;1.70;;;;;;;-8.10;72.75;98287.77;105864;1254;61178;-30
2023/11/30 05:56:15;;;;;;;6.80;2.40;;;;;;;-8.34;73.19;98292.05;105663;1255;61122;-28
2023/11/30 05:58:43;;;;;;;11.40;5.30;;;;;;;-8.50;74.07;98291.35;105693;1255;73086;-28
2023/11/30 06:01:11;;;;;;;9.10;5.30;;;;;;;-8.72;74.92;98294.38;105671;1254;73375;-29
2023/11/30 06:03:39;;;;;;;5.20;3.00;;;;;;;-8.68;75.32;98301.05;105678;1257;72137;-29
2023/11/30 06:06:09;;;;;;;3.30;2.10;;;;;;;-8.00;73.90;98304.94;105581;1254;61131;-28
2023/11/30 06:16:21;;;;;;;4.20;2.90;;;;;;;-7.72;71.45;98304.92;102592;1292;600140;-29
2023/11/30 06:18:49;;;;;;;9.40;4.00;;;;;;;-7.82;71.56;98312.88;105532;1263;61231;-28
2023/11/30 06:21:17;;;;;;;6.20;3.60;;;;;;;-7.90;72.16;98316.20;105252;1259;61113;-29
2023/11/30 06:23:45;;;;;;;4.90;3.10;;;;;;;-7.88;71.82;98321.25;105255;1266;72406;-29
2023/11/30 06:26:13;;;;;;;7.80;3.50;;;;;;;-7.98;71.94;98327.64;105274;1264;74370;-28
2023/11/30 06:28:41;;;;;;;8.30;5.10;;;;;;;-8.10;71.89;98327.19;105241;1266;72238;-29
2023/11/30 06:31:09;;;;;;;4.40;2.50;;;;;;;-7.84;72.17;98325.37;103077;1258;3582436;-28
2023/11/30 06:33:37;;;;;;;14.10;5.50;;;;;;;-6.98;69.91;98331.41;105709;1257;61231;-29
2023/11/30 06:36:06;;;;;;;6.90;3.50;;;;;;;-6.62;68.55;98326.58;105696;1254;71876;-29
2023/11/30 06:38:34;;;;;;;11.80;6.30;;;;;;;-6.72;68.30;98324.79;105794;1254;74408;-29
2023/11/30 06:41:02;;;;;;;15.60;4.70;;;;;;;-6.72;68.36;98320.90;105682;1254;71441;-29
2023/11/30 06:43:30;;;;;;;7.30;4.20;;;;;;;-7.12;69.35;98322.79;105661;1259;61154;-29
2023/11/30 06:45:58;;;;;;;7.60;3.90;;;;;;;-7.21;69.43;98323.13;105700;1254;61061;-29
2023/11/30 06:48:26;;;;;;;10.80;5.00;;;;;;;-7.16;69.80;98320.34;105711;1254;70898;-29
2023/11/30 06:50:54;;;;;;;12.40;4.60;;;;;;;-7.05;69.31;98321.78;105698;1257;72270;-29
2023/11/30 06:53:22;;;;;;;6.00;3.90;;;;;;;-7.01;69.23;98320.86;105547;1258;72813;-29
2023/11/30 06:55:50;;;;;;;15.20;6.10;;;;;;;-7.03;68.98;98320.73;105669;1257;61119;-29
2023/11/30 06:58:18;;;;;;;12.00;4.30;;;;;;;-7.10;69.64;98322.92;105674;1254;61048;-28
2023/11/30 07:00:46;;;;;;;11.60;5.70;;;;;;;-7.14;69.72;98317.77;105643;1254;71758;-28
2023/11/30 07:03:14;;;;;;;10.00;5.60;;;;;;;-7.20;69.89;98310.98;105693;1257;73458;-28
2023/11/30 07:05:42;;;;;;;6.60;4.20;;;;;;;-7.19;69.85;98321.06;105720;1254;71452;-28
2023/11/30 07:08:11;;;;;;;12.90;4.30;;;;;;;-7.13;69.77;98325.02;105685;1253;61145;-28
2023/11/30 07:18:20;;;;;;;9.60;6.20;;;;;;;-6.75;69.44;98319.11;103029;1289;600149;-29
2023/11/30 07:20:48;;;;;;;8.00;5.00;;;;;;;-6.80;68.70;98315.52;105831;1257;61215;-29
2023/11/30 07:23:16;;;;;;;20.40;7.80;;;;;;;-6.88;69.21;98324.47;105697;1259;61059;-29
2023/11/30 07:25:44;;;;;;;5.30;3.60;;;;;;;-6.83;69.28;98324.87;105647;1254;71063;-29
2023/11/30 07:28:11;;;;;;;18.40;7.90;;;;;;;-6.74;69.41;98329.23;105824;1254;74309;-29
2023/11/30 07:30:42;;;;;;;9.60;4.40;;;;;;;-6.62;69.14;98329.79;105835;1253;72728;-29
2023/11/30 07:33:09;;;;;;;8.30;4.30;;;;;;;-6.33;68.69;98328.77;103083;1259;61188;-28
2023/11/30 07:43:20;;;;;;;14.10;8.00;;;;;;;-5.61;66.85;98342.63;102685;1293;600160;-28
2023/11/30 07:45:48;;;;;;;8.70;3.70;;;;;;;-5.51;66.78;98348.79;105534;1262;61164;-29
2023/11/30 07:48:16;;;;;;;14.00;8.30;;;;;;;-5.39;66.00;98352.03;105689;1260;61292;-29
2023/11/30 07:50:44;;;;;;;12.10;6.70;;;;;;;-5.49;66.31;98350.61;105661;1254;70956;-29
2023/11/30 07:53:12;;;;;;;18.90;6.60;;;;;;;-5.44;66.52;98348.27;105662;1254;73212;-28
2023/11/30 07:55:40;;;;;;;6.40;4.90;;;;;;;-5.34;66.43;98353.58;105869;1254;72625;-29
2023/11/30 07:58:08;;;;;;;15.60;7.40;;;;;;;-5.34;66.46;98352.56;103220;1252;3765471;-28
2023/11/30 08:00:56;;;;;;;13.50;7.10;;;;;;;-5.27;66.35;98354.38;102586;1294;600024;-29
2023/11/30 08:03:25;;;;;;;17.20;9.20;;;;;;;-5.10;65.97;98358.48;105342;1257;61137;-29
2023/11/30 08:05:53;;;;;;;10.60;5.10;;;;;;;-4.95;65.43;98356.87;105708;1253;61219;-29
2023/11/30 08:08:21;;;;;;;16.10;8.40;;;;;;;-4.79;65.12;98356.06;105721;1259;72363;-29
2023/11/30 08:10:49;;;;;;;15.60;8.40;;;;;;;-4.64;64.65;98349.53;105662;1259;73224;-29
2023/11/30 08:13:19;;;;;;;7.40;4.20;;;;;;;-4.46;64.06;98346.44;105664;1254;71620;-29
2023/11/30 08:15:48;;;;;;;18.00;7.60;;;;;;;-4.29;63.52;98343.52;102994;1260;61234;-28
2023/11/30 08:18:18;;;;;;;14.50;5.60;;;;;;;-4.12;63.19;98344.83;105786;1257;72168;-29
2023/11/30 08:20:46;;;;;;;8.10;4.60;;;;;;;-3.88;62.73;98350.49;105770;1251;74299;-29
2023/11/30 08:23:13;;;;;;;11.80;6.40;;;;;;;-3.77;61.92;98340.95;105559;1253;72617;-29
2023/11/30 08:25:41;;;;;;;19.60;7.80;;;;;;;-3.64;61.70;98342.04;105644;1257;61126;-29
2023/11/30 08:28:10;;;;;;;9.00;5.70;;;;;;;-3.54;61.38;98340.50;105630;1252;61193;-29
2023/11/30 08:30:40;;;;;;;9.70;6.00;;;;;;;-3.39;61.32;98341.52;105598;1253;73023;-29
2023/11/30 08:33:09;;;;;;;12.40;5.90;;;;;;;-3.26;60.57;98346.48;105618;1258;74483;-29
2023/11/30 08:35:37;;;;;;;9.40;5.90;;;;;;;-3.09;60.44;98346.20;105509;1261;71478;-29
2023/11/30 08:45:47;;;;;;;9.20;5.00;;;;;;;-2.97;59.64;98343.20;102604;1294;600386;-28
2023/11/30 08:48:16;;;;;;;11.70;6.10;;;;;;;-2.81;59.37;98339.73;105564;1262;61199;-29
2023/11/30 08:50:44;;;;;;;11.90;6.50;;;;;;;-2.87;58.89;98341.31;105581;1260;61036;-29
2023/11/30 08:53:12;;;;;;;8.70;4.90;;;;;;;-2.74;59.03;98332.17;105450;1261;71109;-29
2023/11/30 08:55:40;;;;;;;11.60;5.40;;;;;;;-2.50;58.67;98334.98;105570;1261;73066;-29
2023/11/30 08:58:08;;;;;;;10.90;5.80;;;;;;;-2.37;58.14;98329.51;105443;1259;72635;-29
2023/11/30 09:00:39;;;;;;;11.40;6.20;;;;;;;-2.08;57.97;98334.14;103035;1257;62110;-29
2023/11/30 09:03:07;;;;;;;7.20;5.40;;;;;;;-1.97;57.28;98335.20;105610;1257;72267;-29
2023/11/30 09:05:40;;;;;;;10.70;5.40;;;;;;;-2.03;57.02;98329.48;105623;1262;72345;-29
2023/11/30 09:14:52;;;;;;;10.40;5.10;;;;;;;-1.71;56.65;98332.45;102557;1293;600161;-28
2023/11/30 09:17:20;;;;;;;13.80;5.30;;;;;;;-1.92;56.60;98329.08;104886;1272;61142;-29
2023/11/30 09:19:48;;;;;;;9.40;5.30;;;;;;;-1.83;56.74;98327.00;105615;1259;61053;-29
2023/11/30 09:22:17;;;;;;;12.00;6.00;;;;;;;-1.70;56.19;98325.07;105625;1257;72230;-29
2023/11/30 09:24:46;;;;;;;10.80;4.90;;;;;;;-1.62;56.16;98326.95;105606;1261;73232;-28
2023/11/30 09:27:14;;;;;;;16.40;7.30;;;;;;;-1.63;55.98;98329.36;105591;1257;71329;-29
2023/11/30 09:29:42;;;;;;;8.80;5.50;;;;;;;-1.55;56.18;98326.80;103135;1254;62145;-29
2023/11/30 09:32:10;;;;;;;11.30;6.70;;;;;;;-1.59;56.00;98325.98;105631;1254;72210;-29
2023/11/30 09:34:38;;;;;;;15.80;7.60;;;;;;;-1.53;56.00;98326.23;105524;1254;76394;-29
2023/11/30 09:37:06;;;;;;;10.20;5.90;;;;;;;-1.76;56.16;98322.77;105558;1259;71673;-29
2023/11/30 09:39:34;;;;;;;15.80;6.90;;;;;;;-1.97;56.95;98319.94;105681;1259;61061;-29
2023/11/30 09:42:05;;;;;;;11.30;5.50;;;;;;;-2.07;57.06;98321.67;105672;1259;61089;-29
2023/11/30 09:44:33;;;;;;;5.60;4.00;;;;;;;-2.12;57.64;98318.83;105748;1259;73271;-29
2023/11/30 09:47:01;;;;;;;9.20;5.50;;;;;;;-2.10;57.58;98320.94;105691;1254;74735;-29
2023/11/30 09:49:29;;;;;;;8.10;5.50;;;;;;;-1.83;57.26;98317.11;105676;1254;72613;-29
2023/11/30 09:51:57;;;;;;;7.90;4.90;;;;;;;-1.57;56.62;98319.92;105506;1254;61157;-29
2023/11/30 09:54:25;;;;;;;11.10;5.90;;;;;;;-1.54;56.22;98316.56;105558;1253;61171;-29
2023/11/30 10:04:34;;;;;;;13.70;4.90;;;;;;;-1.74;57.14;98315.04;102638;1292;600192;-28
2023/11/30 10:07:02;;;;;;;8.50;3.80;;;;;;;-2.03;57.27;98314.22;105634;1254;61161;-29
2023/11/30 10:09:32;;;;;;;12.70;6.50;;;;;;;-1.91;57.42;98318.64;105638;1254;61161;-29
2023/11/30 10:12:00;;;;;;;12.30;6.20;;;;;;;-1.77;56.91;98320.26;105712;1254;71144;-29
2023/11/30 10:14:28;;;;;;;8.10;5.60;;;;;;;-1.53;57.08;98321.77;105644;1255;73670;-29
2023/11/30 10:16:56;;;;;;;14.40;6.80;;;;;;;-1.11;55.68;98312.80;105672;1254;72686;-28
2023/11/30 10:19:24;;;;;;;6.50;4.20;;;;;;;-0.98;55.47;98314.59;103224;1256;61166;-29
2023/11/30 10:21:56;;;;;;;8.00;4.70;;;;;;;-0.61;54.69;98318.37;106033;1257;72245;-29
2023/11/30 10:24:24;;;;;;;10.50;5.90;;;;;;;-0.66;54.26;98309.17;105728;1251;76759;-30
2023/11/30 10:26:52;;;;;;;16.60;6.20;;;;;;;-0.78;54.79;98308.75;105918;1254;74769;-30
2023/11/30 10:29:20;;;;;;;9.30;5.60;;;;;;;-0.52;54.64;98310.27;105629;1254;61701;-28
2023/11/30 10:31:51;;;;;;;10.50;4.90;;;;;;;-0.38;54.27;98310.45;105691;1260;61058;-29
2023/11/30 10:34:26;;;;;;;9.70;4.80;;;;;;;-0.29;54.16;98307.27;105696;1259;71843;-29
2023/11/30 10:36:55;;;;;;;6.20;4.50;;;;;;;-0.15;54.27;98307.11;105660;1261;76853;-30
2023/11/30 10:39:25;;;;;;;8.80;5.20;;;;;;;0.15;53.50;98302.36;105653;1256;75122;-28
2023/11/30 10:41:54;;;;;;;15.00;6.10;;;;;;;0.48;52.88;98298.67;105729;1254;61059;-26
2023/11/30 10:52:07;;;;;;;7.30;4.10;;;;;;;1.30;50.69;98273.77;102658;1289;600196;-26
2023/11/30 10:54:38;;;;;;;13.40;7.60;;;;;;;1.29;50.50;98271.23;105217;1266;61167;-28
2023/11/30 10:57:07;;;;;;;9.10;5.90;;;;;;;1.73;49.95;98269.48;105688;1253;61032;-26
2023/11/30 10:59:35;;;;;;;10.00;5.50;;;;;;;1.98;49.43;98267.16;105548;1253;71024;-27
2023/11/30 11:02:05;;;;;;;10.50;6.70;;;;;;;2.10;48.72;98262.88;105699;1259;74381;-28
2023/11/30 11:04:39;;;;;;;12.10;5.50;;;;;;;2.08;48.43;98257.23;103576;1262;3543051;-29
2023/11/30 11:07:08;;;;;;;;;;;;;;;2.27;47.99;98250.59;105702;1251;61100;-27
2023/11/30 11:09:40;;;;;;;6.50;3.90;;;;;;;2.20;47.49;98260.77;105938;1253;61173;-29
2023/11/30 11:12:21;;;;;;;9.80;4.00;;;;;;;1.92;47.75;98253.33;105726;1257;70701;-30
2023/11/30 11:14:52;;;;;;;7.60;4.30;;;;;;;1.90;48.17;98259.07;105684;1257;74892;-31
2023/11/30 11:17:21;;;;;;;11.40;6.50;;;;;;;1.78;48.37;98254.95;105199;1259;72674;-31
2023/11/30 11:19:52;;;;;;;10.40;6.50;;;;;;;1.67;48.47;98250.84;105889;1253;61160;-31
2023/11/30 11:22:21;;;;;;;6.90;3.90;;;;;;;1.38;48.70;98256.57;105721;1251;61093;-31
2023/11/30 11:25:03;;;;;;;10.80;6.20;;;;;;;1.20;49.38;98258.61;105504;1253;73184;-29
2023/11/30 11:27:32;;;;;;;8.10;4.70;;;;;;;1.36;49.17;98265.38;105432;1258;75526;-28
2023/11/30 11:30:05;;;;;;;6.90;4.10;;;;;;;0.84;49.76;98263.92;105552;1258;71655;-28
2023/11/30 11:32:33;;;;;;;10.80;3.70;;;;;;;0.48;50.53;98272.01;105310;1258;61175;-28
2023/11/30 11:35:03;;;;;;;8.90;4.00;;;;;;;0.40;50.18;98265.91;105562;1257;61094;-28
2023/11/30 11:37:31;;;;;;;5.20;2.90;;;;;;;0.47;50.19;98268.99;105321;1253;73554;-27
2023/11/30 11:47:42;;;;;;;6.80;3.20;;;;;;;-0.06;52.20;98273.21;102644;1292;600112;-27
2023/11/30 11:50:12;;;;;;;8.10;4.00;;;;;;;-0.10;52.54;98284.35;105660;1254;61618;-28
2023/11/30 11:52:40;;;;;;;6.60;4.20;;;;;;;-0.08;52.68;98287.98;105724;1260;61186;-28
2023/11/30 11:55:10;;;;;;;8.10;4.50;;;;;;;-0.24;52.85;98284.35;105645;1259;72557;-27
2023/11/30 11:57:39;;;;;;;5.20;3.70;;;;;;;-0.34;53.06;98281.25;105677;1254;73121;-28
2023/11/30 12:00:16;;;;;;;5.60;3.30;;;;;;;-0.57;53.35;98284.91;104930;1258;3760059;-28
2023/11/30 12:02:45;;;;;;;4.20;3.00;;;;;;;-0.59;54.63;98285.86;105712;1257;74697;-28
2023/11/30 12:05:20;;;;;;;9.10;3.30;;;;;;;-0.58;54.65;98283.23;105926;1251;61148;-28
2023/11/30 12:07:52;;;;;;;12.20;6.50;;;;;;;-0.70;55.40;98283.48;105920;1251;61126;-28
2023/11/30 12:10:29;;;;;;;10.60;4.20;;;;;;;-0.68;55.54;98286.64;105838;1258;72159;-28
2023/11/30 12:12:58;;;;;;;6.30;3.70;;;;;;;-0.79;55.60;98285.77;105874;1251;76702;-29
2023/11/30 12:15:27;;;;;;;6.70;4.10;;;;;;;-0.83;55.81;98285.09;105689;1254;71453;-28
2023/11/30 12:17:55;;;;;;;10.80;5.70;;;;;;;-0.81;56.53;98277.31;105743;1254;61579;-28
2023/11/30 12:20:23;;;;;;;9.80;6.40;;;;;;;-0.83;56.96;98276.40;105903;1254;61121;-28
2023/11/30 12:22:51;;;;;;;9.40;5.00;;;;;;;-0.94;57.69;98271.50;105736;1258;73053;-28
2023/11/30 12:25:19;;;;;;;13.30;6.80;;;;;;;-0.97;57.99;98269.55;105900;1254;76480;-28
2023/11/30 12:27:47;;;;;;;16.90;8.30;;;;;;;-1.07;58.52;98265.07;105856;1256;72001;-28